createdAt,value
2023-04-25T00:01:14.254Z,8.52
2023-04-25T00:06:16.041Z,8.54
2023-04-25T00:11:17.771Z,8.43
2023-04-25T00:16:19.636Z,8.42
2023-04-25T00:21:22.353Z,8.41
2023-04-25T00:26:24.170Z,8.32
2023-04-25T00:31:25.983Z,8.21
2023-04-25T00:36:28.674Z,7.99
2023-04-25T00:41:31.272Z,7.87
2023-04-25T00:46:33.464Z,7.83
2023-04-25T00:51:36.177Z,7.87
2023-04-25T00:56:38.415Z,7.88
2023-04-25T01:01:40.547Z,8.00
2023-04-25T01:06:42.593Z,7.86
2023-04-25T01:11:44.408Z,7.75
2023-04-25T01:16:46.360Z,7.68
2023-04-25T01:21:48.344Z,7.64
2023-04-25T01:26:51.419Z,7.58
2023-04-25T01:31:59.629Z,7.46
2023-04-25T01:37:02.786Z,7.46
2023-04-25T01:42:04.812Z,7.39
2023-04-25T01:47:06.919Z,7.23
2023-04-25T01:52:08.705Z,7.10
2023-04-25T01:57:12.451Z,7.02
2023-04-25T02:02:16.720Z,6.92
2023-04-25T02:07:19.352Z,6.95
2023-04-25T02:12:28.791Z,6.85
2023-04-25T02:17:30.506Z,6.80
2023-04-25T02:22:32.601Z,6.69
2023-04-25T02:27:34.453Z,6.60
2023-04-25T02:32:36.375Z,6.60
2023-04-25T02:37:39.682Z,6.49
2023-04-25T02:42:42.034Z,6.40
2023-04-25T02:47:43.811Z,6.38
2023-04-25T02:52:47.259Z,6.20
2023-04-25T02:57:53.282Z,6.21
2023-04-25T03:03:07.232Z,6.19
2023-04-25T03:08:09.066Z,6.17
2023-04-25T03:13:13.062Z,6.16
2023-04-25T03:18:17.601Z,6.15
2023-04-25T03:23:19.934Z,6.18
2023-04-25T03:28:23.237Z,6.15
2023-04-25T03:33:25.965Z,6.18
2023-04-25T03:38:28.179Z,6.19
2023-04-25T03:43:30.119Z,6.20
2023-04-25T03:48:39.661Z,6.18
2023-04-25T03:53:42.704Z,6.18
2023-04-25T03:58:50.592Z,6.16
2023-04-25T04:03:55.393Z,6.14
2023-04-25T04:08:57.816Z,6.02
2023-04-25T04:14:00.128Z,5.86
2023-04-25T04:19:03.777Z,5.79
2023-04-25T04:24:09.470Z,5.82
2023-04-25T04:29:23.384Z,5.85
2023-04-25T04:34:40.549Z,5.97
2023-04-25T04:39:42.909Z,6.04
2023-04-25T04:44:59.747Z,6.17
2023-04-25T04:50:22.078Z,6.53
2023-04-25T04:55:42.289Z,6.83
2023-04-25T05:01:02.758Z,6.76
2023-04-25T05:06:23.593Z,7.43
2023-04-25T05:11:45.337Z,7.72
2023-04-25T05:17:09.578Z,7.76
2023-04-25T05:22:40.150Z,7.78
2023-04-25T05:27:54.332Z,7.83
2023-04-25T05:33:14.543Z,8.18
2023-04-25T05:38:17.212Z,8.52
2023-04-25T05:43:37.971Z,8.54
2023-04-25T05:48:56.522Z,8.77
2023-04-25T05:54:13.094Z,9.00
2023-04-25T05:59:15.353Z,9.20
2023-04-25T06:04:17.374Z,9.37
2023-04-25T06:09:19.447Z,9.18
2023-04-25T06:14:21.211Z,9.45
2023-04-25T06:19:25.159Z,9.76
2023-04-25T06:24:27.688Z,10.13
2023-04-25T06:29:29.616Z,10.34
2023-04-25T06:34:31.618Z,10.58
2023-04-25T06:39:34.237Z,10.49
2023-04-25T06:44:36.903Z,10.49
2023-04-25T06:49:42.002Z,10.10
2023-04-25T06:54:46.011Z,9.77
2023-04-25T07:00:10.622Z,9.40
2023-04-25T07:05:13.617Z,9.28
2023-04-25T07:10:16.391Z,9.20
2023-04-25T07:15:18.329Z,8.86
2023-04-25T07:20:23.502Z,9.02
2023-04-25T07:25:25.904Z,8.88
2023-04-25T07:30:28.500Z,9.09
2023-04-25T07:35:30.657Z,9.53
2023-04-25T07:40:32.616Z,9.83
2023-04-25T07:45:40.708Z,10.08
2023-04-25T07:50:46.351Z,10.71
2023-04-25T07:55:48.216Z,11.22
2023-04-25T08:00:52.320Z,11.32
2023-04-25T08:06:13.158Z,11.01
2023-04-25T08:11:38.469Z,11.97
2023-04-25T08:16:41.556Z,11.97
2023-04-25T08:21:43.516Z,12.25
2023-04-25T08:26:50.412Z,12.39
2023-04-25T08:31:55.581Z,12.19
2023-04-25T08:36:57.656Z,11.69
2023-04-25T08:42:22.646Z,11.59
2023-04-25T08:47:27.505Z,11.75
2023-04-25T08:52:36.977Z,11.58
2023-04-25T08:57:40.608Z,11.73
2023-04-25T09:02:45.097Z,12.81
2023-04-25T09:07:48.564Z,13.78
2023-04-25T09:13:07.470Z,13.35
2023-04-25T09:18:34.480Z,12.56
2023-04-25T09:23:46.029Z,12.08
2023-04-25T09:28:50.950Z,12.52
2023-04-25T09:34:02.840Z,12.59
2023-04-25T09:39:20.565Z,12.42
2023-04-25T09:44:30.580Z,12.17
2023-04-25T09:49:33.100Z,11.64
2023-04-25T09:54:41.346Z,11.30
2023-04-25T09:59:48.686Z,11.52
2023-04-25T10:04:54.227Z,11.58
2023-04-25T10:10:07.210Z,12.17
2023-04-25T10:15:10.152Z,11.96
2023-04-25T10:20:12.536Z,11.78
2023-04-25T10:25:15.446Z,12.08
2023-04-25T10:30:17.471Z,12.17
2023-04-25T10:35:25.204Z,12.56
2023-04-25T10:40:28.062Z,12.84
2023-04-25T10:45:29.818Z,13.06
2023-04-25T10:50:40.207Z,12.97
2023-04-25T10:55:52.505Z,13.26
2023-04-25T11:00:57.585Z,13.51
2023-04-25T11:06:02.872Z,13.52
2023-04-25T11:11:05.780Z,13.10
2023-04-25T11:16:12.753Z,12.49
2023-04-25T11:21:15.332Z,12.50
2023-04-25T11:26:17.465Z,12.49
2023-04-25T11:31:22.838Z,11.97
2023-04-25T11:36:25.655Z,11.62
2023-04-25T11:41:27.412Z,11.90
2023-04-25T11:46:29.267Z,12.45
2023-04-25T11:51:32.029Z,12.64
2023-04-25T11:56:34.465Z,13.09
2023-04-25T12:01:39.380Z,12.82
2023-04-25T12:06:43.271Z,13.06
2023-04-25T12:11:56.303Z,12.56
2023-04-25T12:17:02.613Z,12.90
2023-04-25T12:22:20.271Z,13.28
2023-04-25T12:27:22.043Z,13.27
2023-04-25T12:32:27.718Z,13.35
2023-04-25T12:37:29.839Z,13.10
2023-04-25T12:42:32.512Z,12.77
2023-04-25T12:47:36.758Z,13.06
2023-04-25T12:52:38.624Z,13.26
2023-04-25T12:57:42.555Z,13.06
2023-04-25T13:02:46.443Z,12.99
2023-04-25T13:07:50.892Z,13.08
2023-04-25T13:12:52.790Z,12.89
2023-04-25T13:17:54.675Z,13.40
2023-04-25T13:22:56.754Z,13.51
2023-04-25T13:27:58.678Z,13.15
2023-04-25T13:33:04.425Z,12.87
2023-04-25T13:38:09.955Z,12.49
2023-04-25T13:43:11.865Z,11.95
2023-04-25T13:48:13.665Z,11.39
2023-04-25T13:53:15.629Z,11.29
2023-04-25T13:58:20.233Z,11.23
2023-04-25T14:03:22.137Z,11.38
2023-04-25T14:08:23.981Z,11.53
2023-04-25T14:13:26.016Z,12.13
2023-04-25T14:18:27.845Z,12.26
2023-04-25T14:23:29.663Z,12.71
2023-04-25T14:28:32.772Z,12.85
2023-04-25T14:33:35.375Z,12.92
2023-04-25T14:38:38.579Z,12.96
2023-04-25T14:43:43.441Z,13.00
2023-04-25T14:48:46.210Z,13.00
2023-04-25T14:53:48.031Z,12.98
2023-04-25T14:58:49.807Z,12.80
2023-04-25T15:03:52.756Z,12.70
2023-04-25T15:08:56.595Z,12.65
2023-04-25T15:13:58.384Z,12.68
2023-04-25T15:19:00.174Z,12.35
2023-04-25T15:24:02.349Z,12.21
2023-04-25T15:29:05.584Z,11.94
2023-04-25T15:34:08.424Z,11.74
2023-04-25T15:39:10.214Z,11.38
2023-04-25T15:44:11.959Z,11.47
2023-04-25T15:49:13.761Z,11.78
2023-04-25T15:54:16.036Z,12.07
2023-04-25T15:59:17.756Z,12.12
2023-04-25T16:04:19.694Z,11.67
2023-04-25T16:09:22.255Z,11.47
2023-04-25T16:14:24.343Z,11.55
2023-04-25T16:19:26.164Z,11.54
2023-04-25T16:24:27.961Z,11.60
2023-04-25T16:29:30.191Z,11.49
2023-04-25T16:34:32.054Z,11.39
2023-04-25T16:39:33.811Z,11.49
2023-04-25T16:44:35.734Z,11.25
2023-04-25T16:49:39.306Z,11.61
2023-04-25T16:54:41.130Z,11.91
2023-04-25T16:59:42.938Z,11.92
2023-04-25T17:04:44.687Z,11.81
2023-04-25T17:09:46.643Z,11.44
2023-04-25T17:14:49.594Z,11.25
2023-04-25T17:19:54.464Z,10.96
2023-04-25T17:24:57.591Z,10.82
2023-04-25T17:29:59.847Z,10.65
2023-04-25T17:35:01.739Z,10.55
2023-04-25T17:40:05.099Z,10.36
2023-04-25T17:45:08.028Z,10.17
2023-04-25T17:50:09.972Z,10.18
2023-04-25T17:55:11.816Z,10.26
2023-04-25T18:00:14.233Z,10.17
2023-04-25T18:05:16.909Z,10.07
2023-04-25T18:10:18.801Z,9.90
2023-04-25T18:15:22.147Z,9.79
2023-04-25T18:20:23.997Z,9.73
2023-04-25T18:25:25.738Z,9.51
2023-04-25T18:30:27.536Z,9.35
2023-04-25T18:35:29.383Z,9.14
2023-04-25T18:40:31.808Z,8.98
2023-04-25T18:45:33.630Z,8.81
2023-04-25T18:50:35.784Z,8.72
2023-04-25T18:55:38.541Z,8.62
2023-04-25T19:00:40.456Z,8.54
2023-04-25T19:05:42.585Z,8.43
2023-04-25T19:10:44.748Z,8.40
2023-04-25T19:15:47.326Z,8.24
2023-04-25T19:20:49.035Z,8.17
2023-04-25T19:25:50.882Z,8.08
2023-04-25T19:30:54.972Z,8.03
2023-04-25T19:35:56.753Z,8.01
2023-04-25T19:40:58.517Z,8.01
2023-04-25T19:46:00.333Z,7.90
2023-04-25T19:51:02.316Z,7.82
2023-04-25T19:56:04.988Z,7.88
2023-04-25T20:01:06.801Z,7.87
2023-04-25T20:06:08.705Z,7.76
2023-04-25T20:11:12.125Z,7.86
2023-04-25T20:16:19.910Z,7.77
2023-04-25T20:21:22.565Z,7.59
2023-04-25T20:26:25.894Z,7.44
2023-04-25T20:31:27.948Z,7.10
2023-04-25T20:36:30.166Z,7.03
2023-04-25T20:41:32.236Z,7.34
2023-04-25T20:46:35.205Z,7.52
2023-04-25T20:51:37.184Z,7.57
2023-04-25T20:56:39.090Z,7.55
2023-04-25T21:01:41.095Z,7.53
2023-04-25T21:06:42.839Z,7.47
2023-04-25T21:16:47.911Z,7.37
2023-04-25T21:21:49.721Z,7.34
2023-04-25T21:26:51.461Z,7.25
2023-04-25T21:31:53.249Z,7.00
2023-04-25T21:36:55.108Z,6.79
2023-04-25T21:41:56.862Z,6.59
2023-04-25T21:46:58.637Z,6.44
2023-04-25T21:52:00.523Z,6.34
2023-04-25T21:57:02.913Z,6.18
2023-04-25T22:02:04.688Z,6.05
2023-04-25T22:07:06.587Z,5.95
2023-04-25T22:12:08.376Z,5.89
2023-04-25T22:17:12.098Z,5.82
2023-04-25T22:22:14.282Z,5.74
2023-04-25T22:27:16.120Z,5.61
2023-04-25T22:32:18.123Z,5.54
2023-04-25T22:37:19.854Z,5.51
2023-04-25T22:42:21.618Z,5.36
2023-04-25T22:47:24.734Z,5.25
2023-04-25T22:52:26.711Z,5.12
2023-04-25T22:57:28.901Z,5.03
2023-04-25T23:02:30.750Z,5.01
2023-04-25T23:07:34.042Z,4.92
2023-04-25T23:12:35.921Z,4.76
2023-04-25T23:17:38.207Z,4.66
2023-04-25T23:22:40.070Z,4.60
2023-04-25T23:27:43.126Z,4.57
2023-04-25T23:32:45.072Z,4.50
2023-04-25T23:37:49.157Z,4.43
2023-04-25T23:42:51.004Z,4.25
2023-04-25T23:47:52.816Z,4.20
2023-04-25T23:52:54.599Z,4.08
2023-04-25T23:57:56.680Z,4.07
